Time;durP1;ratioP1;P1;durP2;ratioP2;P2;SDS_P1;SDS_P2;PMS_P1;PMS_P2;Temp;Humidity;BMP_temperature;BMP_pressure;BME280_temperature;BME280_humidity;BME280_pressure;Samples;Min_cycle;Max_cycle;Signal;HPM_P1;HPM_P2
2023/08/26 00:01:30;;;;;;;5.15;1.95;;;19.60;99.90;;;;;;4981876;28;20142;-85
2023/08/26 00:03:56;;;;;;;2.88;2.03;;;19.60;99.90;;;;;;4988841;28;20061;-84
2023/08/26 00:06:21;;;;;;;4.15;2.22;;;19.50;99.90;;;;;;4977037;28;20054;-84
2023/08/26 00:08:48;;;;;;;3.78;2.13;;;19.70;99.90;;;;;;4986550;28;20112;-84
2023/08/26 00:11:13;;;;;;;3.58;2.08;;;19.40;99.90;;;;;;4984734;28;20448;-84
2023/08/26 00:13:39;;;;;;;3.30;2.63;;;19.40;99.90;;;;;;4984181;28;20130;-84
2023/08/26 00:16:04;;;;;;;4.68;1.90;;;19.40;99.90;;;;;;4994125;28;20082;-84
2023/08/26 00:18:31;;;;;;;3.38;2.40;;;19.20;99.90;;;;;;4989896;28;20034;-84
2023/08/26 00:20:57;;;;;;;5.13;2.75;;;19.20;99.90;;;;;;4980653;28;20066;-84
2023/08/26 00:23:23;;;;;;;3.80;3.25;;;19.10;99.90;;;;;;4978725;28;20106;-84
2023/08/26 00:25:49;;;;;;;8.10;4.22;;;19.10;99.90;;;;;;4983836;28;20106;-84
2023/08/26 00:28:15;;;;;;;4.90;3.90;;;19.00;99.90;;;;;;4992122;28;20022;-84
2023/08/26 00:30:41;;;;;;;5.35;3.95;;;19.50;99.90;;;;;;4993392;28;20050;-84
2023/08/26 00:33:07;;;;;;;5.85;4.07;;;18.90;99.90;;;;;;4979617;28;20454;-83
2023/08/26 00:35:32;;;;;;;15.23;3.80;;;18.90;99.90;;;;;;4992520;28;20059;-84
2023/08/26 00:37:58;;;;;;;5.00;4.50;;;19.10;99.90;;;;;;4979206;28;20051;-84
2023/08/26 00:40:25;;;;;;;7.13;4.00;;;18.80;99.90;;;;;;4993213;28;20050;-84
2023/08/26 00:42:54;;;;;;;4.47;3.00;;;18.90;99.90;;;;;;4987563;28;20118;-88
2023/08/26 00:45:20;;;;;;;17.00;4.55;;;18.90;99.90;;;;;;4993964;28;20398;-83
2023/08/26 00:47:46;;;;;;;5.55;3.10;;;18.80;99.90;;;;;;4989798;28;20041;-84
2023/08/26 00:50:11;;;;;;;9.30;2.88;;;19.10;99.90;;;;;;4990949;28;20390;-84
2023/08/26 00:52:38;;;;;;;10.32;2.85;;;18.70;99.90;;;;;;4977942;28;20074;-84
2023/08/26 00:55:05;;;;;;;7.97;2.97;;;18.70;99.90;;;;;;4972976;28;20026;-83
2023/08/26 00:57:31;;;;;;;5.55;2.83;;;18.70;99.90;;;;;;4983922;28;20065;-84
2023/08/26 00:59:57;;;;;;;4.95;2.75;;;18.60;99.90;;;;;;4993221;28;20390;-84
2023/08/26 01:02:25;;;;;;;12.95;3.35;;;18.60;99.90;;;;;;4976474;28;20035;-85
2023/08/26 01:04:51;;;;;;;12.13;2.95;;;18.60;99.90;;;;;;4973559;28;20050;-85
2023/08/26 01:07:18;;;;;;;9.30;3.05;;;18.50;99.90;;;;;;4973811;28;20446;-85
2023/08/26 01:09:44;;;;;;;8.93;2.60;;;18.60;99.90;;;;;;4980395;28;20035;-85
2023/08/26 01:12:31;;;;;;;8.43;2.75;;;18.60;99.90;;;;;;4988037;28;20072;-85
2023/08/26 01:15:09;;;;;;;4.97;2.55;;;18.60;99.90;;;;;;4974121;28;20135;-85
2023/08/26 01:17:36;;;;;;;8.25;2.90;;;18.70;99.90;;;;;;4961908;28;20030;-85
2023/08/26 01:20:05;;;;;;;6.53;2.67;;;18.70;99.90;;;;;;4987342;28;20035;-86
2023/08/26 01:22:34;;;;;;;6.05;2.83;;;18.70;99.90;;;;;;4982816;28;20026;-86
2023/08/26 01:25:00;;;;;;;7.63;2.60;;;18.60;99.90;;;;;;4975682;28;20055;-85
2023/08/26 01:27:25;;;;;;;10.35;4.20;;;18.60;99.90;;;;;;4973796;28;20026;-85
2023/08/26 01:29:51;;;;;;;9.60;3.65;;;18.50;99.90;;;;;;4972046;28;20070;-85
2023/08/26 01:32:46;;;;;;;8.07;2.97;;;18.40;99.90;;;;;;4982060;28;20112;-86
2023/08/26 01:35:21;;;;;;;9.70;3.47;;;18.40;99.90;;;;;;4985872;28;20023;-85
2023/08/26 01:37:48;;;;;;;6.90;3.05;;;18.20;99.90;;;;;;4977709;28;20142;-85
2023/08/26 01:40:16;;;;;;;7.00;3.20;;;18.20;99.90;;;;;;4979015;28;20050;-85
2023/08/26 01:42:43;;;;;;;4.38;2.40;;;18.10;99.90;;;;;;4981066;28;20030;-85
2023/08/26 01:45:09;;;;;;;12.27;3.35;;;18.00;99.90;;;;;;4982551;28;20540;-85
2023/08/26 01:47:35;;;;;;;11.30;4.07;;;17.90;99.90;;;;;;4986997;28;20086;-85
2023/08/26 01:50:01;;;;;;;6.07;3.22;;;18.00;99.90;;;;;;4988600;28;20019;-85
2023/08/26 01:52:26;;;;;;;9.00;3.70;;;17.90;99.90;;;;;;4981768;28;20444;-85
2023/08/26 01:54:52;;;;;;;8.68;3.45;;;17.90;99.90;;;;;;4997312;28;20053;-84
2023/08/26 01:57:18;;;;;;;14.57;5.53;;;17.90;99.90;;;;;;4994308;28;20357;-85
2023/08/26 01:59:43;;;;;;;9.65;4.13;;;17.90;99.90;;;;;;4986037;28;20038;-85
2023/08/26 02:02:11;;;;;;;9.95;3.75;;;17.80;99.90;;;;;;4985147;28;20098;-85
2023/08/26 02:04:37;;;;;;;11.30;4.35;;;17.80;99.90;;;;;;4985145;28;20031;-85
2023/08/26 02:07:03;;;;;;;5.32;3.50;;;17.80;99.90;;;;;;4996755;28;20367;-86
2023/08/26 02:09:29;;;;;;;5.72;3.55;;;17.80;99.90;;;;;;4982928;28;20034;-85
2023/08/26 02:11:55;;;;;;;8.55;3.53;;;17.70;99.90;;;;;;4988645;28;20051;-86
2023/08/26 02:14:20;;;;;;;8.15;3.80;;;17.70;99.90;;;;;;4976854;28;20023;-86
2023/08/26 02:16:46;;;;;;;6.22;3.53;;;17.80;99.90;;;;;;4984356;28;20027;-84
2023/08/26 02:19:11;;;;;;;12.13;4.45;;;17.80;99.90;;;;;;4991368;28;20390;-86
2023/08/26 02:21:37;;;;;;;9.02;3.70;;;17.70;99.90;;;;;;4976585;28;20034;-85
2023/08/26 02:24:03;;;;;;;8.10;3.67;;;17.90;99.90;;;;;;4979430;28;20038;-86
2023/08/26 02:26:29;;;;;;;7.68;3.60;;;17.70;99.90;;;;;;4993324;28;20018;-85
2023/08/26 02:28:54;;;;;;;8.32;3.90;;;17.70;99.90;;;;;;4993662;28;20452;-86
2023/08/26 02:31:20;;;;;;;6.40;3.65;;;17.60;99.90;;;;;;4990820;28;20066;-85
2023/08/26 02:33:46;;;;;;;6.32;3.08;;;17.80;99.90;;;;;;4977473;28;20034;-85
2023/08/26 02:36:11;;;;;;;4.88;3.53;;;17.80;99.90;;;;;;4993559;28;20493;-85
2023/08/26 02:38:37;;;;;;;6.60;2.95;;;18.10;99.90;;;;;;4982567;28;20497;-85
2023/08/26 02:41:03;;;;;;;8.60;3.35;;;17.80;99.90;;;;;;4992524;28;20026;-85
2023/08/26 02:43:28;;;;;;;8.35;3.92;;;17.90;99.90;;;;;;4987543;28;20089;-86
2023/08/26 02:45:55;;;;;;;9.90;3.42;;;17.90;99.90;;;;;;4995840;28;20030;-84
2023/08/26 02:48:22;;;;;;;7.65;3.67;;;17.90;99.90;;;;;;4978254;28;20390;-84
2023/08/26 02:50:57;;;;;;;11.15;3.60;;;17.70;99.90;;;;;;4976648;28;20486;-85
2023/08/26 02:53:24;;;;;;;6.97;3.70;;;17.70;99.90;;;;;;4985208;28;20041;-84
2023/08/26 02:55:51;;;;;;;7.75;3.13;;;17.70;99.90;;;;;;4995786;28;20549;-84
2023/08/26 02:58:17;;;;;;;10.35;3.70;;;17.60;99.90;;;;;;4980776;28;20288;-85
2023/08/26 03:00:42;;;;;;;5.82;3.47;;;17.70;99.90;;;;;;4975229;28;20478;-84
2023/08/26 03:03:08;;;;;;;7.10;3.45;;;17.60;99.90;;;;;;4983254;28;20061;-84
2023/08/26 03:05:34;;;;;;;10.00;4.25;;;17.60;99.90;;;;;;4978805;28;20026;-84
2023/08/26 03:08:00;;;;;;;6.97;3.78;;;17.50;99.90;;;;;;4993088;28;20088;-84
2023/08/26 03:10:25;;;;;;;7.00;3.60;;;17.40;99.90;;;;;;4985197;28;20110;-84
2023/08/26 03:12:51;;;;;;;10.93;3.63;;;17.40;99.90;;;;;;4985121;28;20026;-84
2023/08/26 03:15:16;;;;;;;9.38;3.60;;;17.30;99.90;;;;;;4994374;28;20564;-86
2023/08/26 03:17:42;;;;;;;8.52;3.53;;;17.40;99.90;;;;;;4991047;28;20037;-86
2023/08/26 03:20:09;;;;;;;11.25;3.47;;;17.30;99.90;;;;;;4982887;28;20077;-85
2023/08/26 03:22:34;;;;;;;4.40;3.38;;;17.20;99.90;;;;;;4990727;28;20506;-86
2023/08/26 03:25:00;;;;;;;5.95;4.22;;;17.20;99.90;;;;;;4976664;28;20027;-85
2023/08/26 03:27:25;;;;;;;6.57;3.13;;;17.20;99.90;;;;;;4976041;28;20482;-86
2023/08/26 03:29:51;;;;;;;9.20;3.20;;;17.10;99.90;;;;;;4974632;28;20022;-85
2023/08/26 03:32:17;;;;;;;7.97;4.00;;;17.10;99.90;;;;;;4975352;28;20109;-85
2023/08/26 03:34:42;;;;;;;8.98;3.75;;;17.10;99.90;;;;;;4974369;28;20479;-85
2023/08/26 03:37:08;;;;;;;7.03;3.45;;;17.10;99.90;;;;;;4974990;28;20081;-85
2023/08/26 03:39:34;;;;;;;8.90;3.47;;;17.10;99.90;;;;;;4993416;28;20080;-86
2023/08/26 03:42:00;;;;;;;12.80;3.80;;;17.10;99.90;;;;;;4982558;28;20391;-86
2023/08/26 03:44:25;;;;;;;8.10;4.05;;;17.00;99.90;;;;;;4978080;28;20049;-85
2023/08/26 03:46:51;;;;;;;8.02;3.78;;;17.00;99.90;;;;;;4984012;28;20037;-85
2023/08/26 03:49:16;;;;;;;7.47;3.13;;;17.30;99.90;;;;;;4998371;28;20046;-83
2023/08/26 03:51:42;;;;;;;10.43;3.42;;;16.90;99.90;;;;;;4998542;28;20030;-85
2023/08/26 03:54:08;;;;;;;9.77;4.15;;;17.00;99.90;;;;;;4982054;28;20027;-85
2023/08/26 03:56:33;;;;;;;5.30;2.90;;;16.90;99.90;;;;;;4993682;28;20482;-85
2023/08/26 03:58:59;;;;;;;6.22;3.78;;;16.90;99.90;;;;;;4990136;28;20474;-85
2023/08/26 04:01:24;;;;;;;6.78;3.33;;;16.80;99.90;;;;;;4993155;28;20023;-84
2023/08/26 04:03:51;;;;;;;17.38;3.60;;;16.80;99.90;;;;;;4984247;28;20430;-85
2023/08/26 04:06:17;;;;;;;6.95;3.45;;;16.90;99.90;;;;;;4983284;28;20040;-85
2023/08/26 04:08:45;;;;;;;7.28;3.10;;;16.80;99.90;;;;;;4985058;28;20042;-84
2023/08/26 04:11:10;;;;;;;6.50;3.47;;;16.80;99.90;;;;;;4994692;28;20027;-86
2023/08/26 04:13:36;;;;;;;9.13;3.80;;;17.60;99.90;;;;;;4992576;28;20014;-85
2023/08/26 04:16:03;;;;;;;10.02;3.30;;;17.00;99.90;;;;;;4983753;28;20093;-83
2023/08/26 04:18:30;;;;;;;7.50;3.17;;;16.80;99.90;;;;;;5005016;28;20077;-84
2023/08/26 04:20:56;;;;;;;6.63;3.45;;;16.80;99.90;;;;;;4992773;28;20027;-85
2023/08/26 04:23:21;;;;;;;5.10;2.90;;;16.70;99.90;;;;;;4991844;28;20390;-84
2023/08/26 04:25:47;;;;;;;5.55;3.15;;;16.80;99.90;;;;;;4978932;28;20038;-84
2023/08/26 04:28:16;;;;;;;10.05;2.97;;;17.70;99.90;;;;;;4972584;28;20058;-85
2023/08/26 04:30:42;;;;;;;13.40;3.50;;;17.00;99.90;;;;;;4980695;28;20777;-85
2023/08/26 04:33:07;;;;;;;6.70;3.50;;;16.60;99.90;;;;;;4957275;28;20035;-88
2023/08/26 04:35:33;;;;;;;7.93;3.40;;;16.70;99.90;;;;;;4980952;28;20022;-84
2023/08/26 04:38:00;;;;;;;9.13;3.63;;;16.70;99.90;;;;;;4973933;28;20059;-84
2023/08/26 04:40:25;;;;;;;7.53;3.70;;;16.70;99.90;;;;;;4986514;28;20062;-84
2023/08/26 04:42:53;;;;;;;8.30;3.50;;;17.20;99.90;;;;;;4993580;28;20058;-84
2023/08/26 04:45:19;;;;;;;11.57;4.43;;;16.60;99.90;;;;;;4976366;28;20480;-85
2023/08/26 04:47:45;;;;;;;5.40;3.88;;;16.60;99.90;;;;;;4992668;28;20037;-84
2023/08/26 04:50:11;;;;;;;12.80;3.85;;;16.60;99.90;;;;;;4988284;28;20026;-85
2023/08/26 04:52:39;;;;;;;16.92;3.97;;;16.60;99.90;;;;;;4956306;28;20063;-84
2023/08/26 04:55:08;;;;;;;9.60;3.78;;;16.50;99.90;;;;;;4977730;28;20060;-84
2023/08/26 04:57:34;;;;;;;9.43;3.60;;;16.50;99.90;;;;;;4975820;28;20106;-85
2023/08/26 05:00:00;;;;;;;10.73;3.55;;;16.50;99.90;;;;;;4990852;28;20034;-84
2023/08/26 05:02:26;;;;;;;10.02;3.80;;;16.50;99.90;;;;;;4987985;28;20066;-84
2023/08/26 05:04:53;;;;;;;11.15;3.75;;;16.60;99.90;;;;;;4978329;28;20475;-84
2023/08/26 05:07:20;;;;;;;12.15;3.78;;;16.60;99.90;;;;;;4983827;28;20027;-84
2023/08/26 05:09:45;;;;;;;6.45;3.53;;;16.60;99.90;;;;;;4984036;28;20130;-85
2023/08/26 05:12:11;;;;;;;8.85;3.42;;;16.60;99.90;;;;;;4993609;28;20471;-85
2023/08/26 05:14:36;;;;;;;8.57;4.05;;;16.90;99.90;;;;;;4973895;28;20058;-85
2023/08/26 05:17:02;;;;;;;7.95;3.45;;;16.60;99.90;;;;;;4985849;28;20030;-85
2023/08/26 05:19:28;;;;;;;7.40;3.63;;;16.70;99.90;;;;;;4992171;28;20042;-84
2023/08/26 05:21:53;;;;;;;9.32;4.07;;;16.70;99.90;;;;;;4976611;23;20058;-84
2023/08/26 05:24:19;;;;;;;6.45;3.40;;;16.70;99.90;;;;;;4954516;28;20504;-85
2023/08/26 05:26:45;;;;;;;5.40;3.10;;;16.80;99.90;;;;;;4966440;28;20033;-84
2023/08/26 05:29:11;;;;;;;8.68;3.75;;;16.80;99.90;;;;;;4953678;29;20027;-84
2023/08/26 05:31:37;;;;;;;7.70;3.67;;;16.90;99.90;;;;;;4957076;28;20585;-84
2023/08/26 05:34:02;;;;;;;11.85;4.05;;;16.90;99.90;;;;;;4954261;29;20055;-84
2023/08/26 05:36:28;;;;;;;6.18;3.47;;;16.90;99.90;;;;;;4968434;28;20039;-83
2023/08/26 05:38:55;;;;;;;6.03;3.75;;;16.90;99.90;;;;;;4966997;28;20133;-83
2023/08/26 05:41:21;;;;;;;7.90;3.28;;;16.90;99.90;;;;;;4976499;28;20121;-83
2023/08/26 05:43:46;;;;;;;10.23;3.50;;;17.00;99.90;;;;;;4981657;28;20050;-84
2023/08/26 05:46:12;;;;;;;11.25;4.10;;;17.00;99.90;;;;;;4969532;28;20029;-82
2023/08/26 05:48:38;;;;;;;8.75;3.20;;;17.00;99.90;;;;;;4991576;28;20035;-84
2023/08/26 05:51:03;;;;;;;5.60;3.30;;;17.00;99.90;;;;;;4970536;28;20093;-84
2023/08/26 05:53:29;;;;;;;13.05;4.13;;;17.00;99.90;;;;;;4977675;28;20033;-83
2023/08/26 05:55:55;;;;;;;8.93;3.88;;;17.30;99.90;;;;;;4979490;28;20029;-84
2023/08/26 05:58:21;;;;;;;8.07;3.80;;;17.00;99.90;;;;;;4978030;28;20035;-85
2023/08/26 06:00:50;;;;;;;7.97;3.50;;;17.00;99.90;;;;;;4965588;28;20387;-84
2023/08/26 06:03:15;;;;;;;5.40;3.10;;;17.00;99.90;;;;;;4980299;28;20499;-85
2023/08/26 06:05:41;;;;;;;8.00;3.78;;;17.10;99.90;;;;;;4979506;28;20099;-85
2023/08/26 06:08:07;;;;;;;7.63;3.38;;;17.00;99.90;;;;;;4980233;28;20038;-84
2023/08/26 06:10:32;;;;;;;7.95;3.67;;;17.10;99.90;;;;;;4977112;28;20037;-83
2023/08/26 06:12:58;;;;;;;3.72;3.20;;;17.50;99.90;;;;;;4977918;28;20427;-83
2023/08/26 06:15:24;;;;;;;13.80;3.72;;;17.10;99.90;;;;;;4966232;28;20103;-83
2023/08/26 06:17:49;;;;;;;6.35;3.05;;;17.00;99.90;;;;;;4971321;28;20122;-84
2023/08/26 06:20:33;;;;;;;6.32;3.75;;;17.00;99.90;;;;;;4967283;28;20045;-84
2023/08/26 06:23:00;;;;;;;11.52;3.45;;;17.10;99.90;;;;;;4980614;28;20059;-83
2023/08/26 06:25:25;;;;;;;9.43;3.83;;;17.10;99.90;;;;;;4978210;28;20022;-84
2023/08/26 06:27:51;;;;;;;9.13;4.15;;;17.20;99.90;;;;;;4987401;28;20023;-83
2023/08/26 06:30:17;;;;;;;9.25;4.10;;;17.20;99.90;;;;;;4981961;28;20027;-84
2023/08/26 06:32:42;;;;;;;8.65;3.55;;;17.20;99.90;;;;;;4986884;28;20051;-84
2023/08/26 06:35:08;;;;;;;6.15;3.00;;;17.30;99.90;;;;;;4963401;28;20407;-84
2023/08/26 06:37:35;;;;;;;8.77;3.45;;;17.30;99.90;;;;;;4960758;29;20042;-84
2023/08/26 06:40:00;;;;;;;11.63;3.97;;;17.30;99.90;;;;;;4965469;28;20518;-83
2023/08/26 06:42:26;;;;;;;7.82;3.80;;;17.30;99.90;;;;;;4968393;28;20027;-84
2023/08/26 06:44:54;;;;;;;8.80;4.30;;;17.30;99.90;;;;;;4963446;28;20029;-84
2023/08/26 06:47:19;;;;;;;8.75;3.45;;;17.30;99.90;;;;;;4969794;28;20483;-84
2023/08/26 06:49:45;;;;;;;8.60;3.47;;;17.40;99.90;;;;;;4960467;28;20074;-82
2023/08/26 06:52:11;;;;;;;11.93;4.32;;;17.30;99.90;;;;;;4957844;28;20039;-83
2023/08/26 06:54:37;;;;;;;4.10;2.88;;;17.30;99.90;;;;;;4967665;28;20037;-82
2023/08/26 06:57:02;;;;;;;7.85;3.47;;;17.30;99.90;;;;;;4969111;28;20096;-84
2023/08/26 06:59:28;;;;;;;5.95;3.20;;;17.30;99.90;;;;;;4969515;28;20518;-84
2023/08/26 07:01:54;;;;;;;6.70;3.20;;;17.20;99.90;;;;;;4958753;29;20026;-83
2023/08/26 07:04:19;;;;;;;9.38;3.78;;;17.30;99.90;;;;;;4964164;28;20028;-83
2023/08/26 07:06:46;;;;;;;9.60;3.33;;;17.20;99.90;;;;;;4975957;28;20853;-83
2023/08/26 07:09:12;;;;;;;7.10;3.53;;;17.10;99.90;;;;;;4969205;28;20035;-84
2023/08/26 07:11:37;;;;;;;4.68;3.20;;;17.20;99.90;;;;;;4973538;28;20041;-83
2023/08/26 07:14:03;;;;;;;7.15;2.80;;;17.20;99.90;;;;;;4970664;28;20487;-83
2023/08/26 07:16:29;;;;;;;7.65;3.00;;;17.20;99.90;;;;;;4968030;28;20051;-83
2023/08/26 07:18:55;;;;;;;5.10;2.35;;;17.20;99.90;;;;;;4959040;29;20050;-87
2023/08/26 07:21:21;;;;;;;7.53;2.90;;;17.50;99.90;;;;;;4964029;28;20043;-87
2023/08/26 07:24:09;;;;;;;6.80;2.95;;;17.30;99.90;;;;;;4977547;28;20031;-88
2023/08/26 07:26:34;;;;;;;5.43;3.63;;;17.10;99.90;;;;;;4970867;28;20058;-86
2023/08/26 07:29:17;;;;;;;7.57;3.13;;;17.30;99.90;;;;;;4965587;28;20032;-88
2023/08/26 07:31:43;;;;;;;8.38;3.13;;;17.20;99.90;;;;;;4968676;28;20079;-87
2023/08/26 07:34:09;;;;;;;6.57;3.03;;;18.50;99.90;;;;;;4991819;28;20034;-86
2023/08/26 07:36:47;;;;;;;11.27;3.00;;;17.20;99.90;;;;;;4983408;28;20019;-88
2023/08/26 07:39:12;;;;;;;5.00;3.05;;;17.90;99.90;;;;;;4974959;28;20411;-85
2023/08/26 07:41:50;;;;;;;4.80;3.10;;;17.20;99.90;;;;;;4969806;28;20023;-86
2023/08/26 07:44:16;;;;;;;6.10;3.42;;;17.20;99.90;;;;;;4975424;28;20539;-86
2023/08/26 07:46:42;;;;;;;3.10;2.78;;;17.10;99.90;;;;;;4972111;28;20118;-88
2023/08/26 07:49:25;;;;;;;5.63;3.53;;;17.10;99.90;;;;;;4957708;29;20065;-87
2023/08/26 07:51:51;;;;;;;8.38;3.05;;;17.20;99.90;;;;;;4961620;28;20110;-86
2023/08/26 07:54:37;;;;;;;4.78;3.22;;;18.20;99.90;;;;;;4963890;28;20495;-86
2023/08/26 07:57:03;;;;;;;9.18;3.10;;;17.20;99.90;;;;;;4971972;28;20042;-86
2023/08/26 07:59:41;;;;;;;2.90;2.70;;;17.30;99.90;;;;;;4964894;28;20030;-84
2023/08/26 08:02:07;;;;;;;7.45;2.92;;;17.30;99.90;;;;;;4965489;28;20023;-84
2023/08/26 08:04:32;;;;;;;6.50;2.78;;;17.40;99.90;;;;;;4956349;29;20042;-86
2023/08/26 08:06:58;;;;;;;5.45;2.72;;;17.30;99.90;;;;;;4960270;28;20063;-86
2023/08/26 08:09:23;;;;;;;2.70;2.22;;;18.10;99.90;;;;;;4957282;29;20348;-84
2023/08/26 08:11:49;;;;;;;3.83;2.08;;;17.40;99.90;;;;;;4962099;28;20396;-84
2023/08/26 08:14:14;;;;;;;3.00;1.98;;;17.50;99.90;;;;;;4964739;28;20101;-83
2023/08/26 08:16:40;;;;;;;4.85;2.35;;;17.50;99.90;;;;;;4972726;28;20055;-84
2023/08/26 08:19:06;;;;;;;2.75;1.92;;;17.60;99.90;;;;;;4973911;28;20023;-82
2023/08/26 08:21:31;;;;;;;4.78;2.47;;;17.90;99.90;;;;;;4969963;28;20072;-81
2023/08/26 08:23:57;;;;;;;4.43;2.50;;;17.60;99.90;;;;;;4957361;28;20505;-85
2023/08/26 08:26:22;;;;;;;4.30;2.90;;;17.60;99.90;;;;;;4969043;28;20055;-85
2023/08/26 08:28:48;;;;;;;4.75;3.45;;;17.70;99.90;;;;;;4956345;29;20150;-85
2023/08/26 08:31:13;;;;;;;3.58;3.28;;;17.80;99.90;;;;;;4962860;28;20028;-81
2023/08/26 08:33:39;;;;;;;7.35;4.55;;;17.80;99.90;;;;;;4978902;28;20023;-81
2023/08/26 08:36:05;;;;;;;6.00;5.50;;;17.90;99.90;;;;;;4983740;28;20510;-81
2023/08/26 08:38:30;;;;;;;5.35;4.15;;;17.80;99.90;;;;;;4986924;28;20115;-83
2023/08/26 08:40:56;;;;;;;8.07;4.80;;;18.10;99.90;;;;;;4977941;28;20023;-83
2023/08/26 08:43:22;;;;;;;5.95;5.35;;;17.70;99.90;;;;;;4974439;28;20035;-85
2023/08/26 08:45:50;;;;;;;5.07;4.68;;;17.90;99.90;;;;;;4964171;28;20031;-86
2023/08/26 08:48:17;;;;;;;5.95;4.88;;;17.90;99.90;;;;;;4955843;29;20030;-87
2023/08/26 08:50:43;;;;;;;4.10;3.70;;;17.90;99.90;;;;;;4968796;28;20054;-86
2023/08/26 08:53:12;;;;;;;4.88;4.18;;;17.90;99.90;;;;;;4973347;28;20424;-85
2023/08/26 08:55:38;;;;;;;5.13;4.22;;;17.80;99.90;;;;;;4963756;28;20030;-86
2023/08/26 08:58:04;;;;;;;6.82;4.47;;;17.90;99.90;;;;;;4974372;28;20116;-84
2023/08/26 09:00:31;;;;;;;4.97;4.57;;;17.90;99.90;;;;;;4971224;28;20352;-84
2023/08/26 09:02:59;;;;;;;6.07;4.75;;;18.00;99.90;;;;;;4967132;28;20073;-84
2023/08/26 09:05:25;;;;;;;5.65;4.32;;;17.90;99.90;;;;;;4969364;28;20491;-86
2023/08/26 09:07:52;;;;;;;3.88;3.58;;;17.90;99.90;;;;;;4962419;28;20049;-85
2023/08/26 09:10:20;;;;;;;4.07;3.67;;;18.00;99.90;;;;;;4972153;28;20023;-84
2023/08/26 09:12:46;;;;;;;4.15;3.42;;;18.00;99.90;;;;;;4971059;28;20457;-84
2023/08/26 09:15:13;;;;;;;3.95;3.53;;;19.00;99.90;;;;;;4971872;28;20039;-86
2023/08/26 09:17:44;;;;;;;3.22;2.97;;;18.10;99.90;;;;;;4989721;28;20046;-85
2023/08/26 09:20:13;;;;;;;5.07;3.15;;;18.40;99.90;;;;;;4974914;28;20316;-85
2023/08/26 09:22:39;;;;;;;6.80;2.58;;;18.20;99.90;;;;;;4969999;28;20059;-86
2023/08/26 09:25:05;;;;;;;4.03;2.75;;;18.20;99.90;;;;;;4968589;28;20495;-90
2023/08/26 09:27:40;;;;;;;3.47;2.80;;;18.30;99.90;;;;;;4960235;29;20106;-90
2023/08/26 09:30:07;;;;;;;3.80;3.00;;;18.30;99.90;;;;;;4976735;28;20029;-91
2023/08/26 09:32:34;;;;;;;3.92;2.97;;;18.40;99.90;;;;;;4976687;28;20041;-85
2023/08/26 09:35:14;;;;;;;3.45;2.70;;;18.50;99.90;;;;;;4967993;28;20039;-90
2023/08/26 09:37:42;;;;;;;4.30;3.03;;;18.40;99.90;;;;;;4957890;29;20036;-88
2023/08/26 09:40:14;;;;;;;3.80;3.20;;;18.40;99.90;;;;;;4955487;29;20028;-86
2023/08/26 09:42:41;;;;;;;2.97;2.50;;;18.40;99.90;;;;;;4959768;28;20143;-89
2023/08/26 09:45:10;;;;;;;7.05;3.00;;;18.40;99.90;;;;;;4967079;28;20039;-85
2023/08/26 09:47:37;;;;;;;4.15;1.98;;;18.60;99.90;;;;;;4953511;29;20054;-85
2023/08/26 09:50:12;;;;;;;2.90;1.77;;;18.40;99.90;;;;;;4953288;28;20046;-87
2023/08/26 09:52:48;;;;;;;9.40;2.20;;;18.50;99.90;;;;;;4955154;29;20023;-85
2023/08/26 09:55:15;;;;;;;5.88;2.10;;;18.60;99.90;;;;;;4965502;28;20022;-85
2023/08/26 09:57:43;;;;;;;2.75;1.80;;;18.70;99.90;;;;;;4970528;28;20027;-83
2023/08/26 10:00:12;;;;;;;3.22;2.03;;;18.70;99.90;;;;;;4960927;28;20035;-84
2023/08/26 10:02:49;;;;;;;5.30;2.08;;;18.70;99.90;;;;;;4969384;28;20070;-84
2023/08/26 10:05:20;;;;;;;3.60;2.45;;;18.70;99.90;;;;;;4963631;28;20034;-83
2023/08/26 10:07:50;;;;;;;4.18;2.60;;;18.80;99.90;;;;;;4958171;28;20502;-83
2023/08/26 10:10:19;;;;;;;3.83;1.88;;;18.80;99.90;;;;;;4958698;28;20492;-85
2023/08/26 10:12:49;;;;;;;2.60;1.48;;;18.90;99.90;;;;;;4961677;28;20049;-84
2023/08/26 10:15:17;;;;;;;5.88;1.90;;;18.90;99.90;;;;;;4971706;28;20098;-84
2023/08/26 10:17:45;;;;;;;2.42;1.48;;;18.90;99.90;;;;;;4968766;28;20042;-86
2023/08/26 10:20:12;;;;;;;2.15;1.40;;;18.90;99.90;;;;;;4972515;28;20113;-86
2023/08/26 10:22:38;;;;;;;4.72;1.90;;;18.90;99.90;;;;;;4970173;28;21459;-85
2023/08/26 10:25:11;;;;;;;2.67;1.83;;;18.90;99.90;;;;;;4970194;28;20027;-85
2023/08/26 10:27:59;;;;;;;1.85;1.70;;;20.10;99.90;;;;;;4975942;28;20051;-90
2023/08/26 10:30:44;;;;;;;4.40;1.88;;;18.80;99.90;;;;;;4979947;28;20047;-89
2023/08/26 10:33:09;;;;;;;5.45;1.85;;;19.00;99.90;;;;;;4977161;28;20129;-89
2023/08/26 10:35:57;;;;;;;3.40;1.65;;;19.10;99.90;;;;;;4968620;28;20022;-90
2023/08/26 10:38:53;;;;;;;3.38;1.90;;;19.10;99.90;;;;;;4996331;28;20043;-89
2023/08/26 10:41:33;;;;;;;1.63;1.20;;;17.50;99.90;;;;;;4998132;28;20034;-88
2023/08/26 10:44:14;;;;;;;1.25;1.15;;;18.80;99.90;;;;;;4983493;28;20095;-91
2023/08/26 10:47:00;;;;;;;4.85;1.73;;;19.80;99.90;;;;;;4973947;28;20030;-89
2023/08/26 10:49:29;;;;;;;5.32;1.77;;;19.30;99.90;;;;;;4965090;28;20074;-87
2023/08/26 10:52:37;;;;;;;2.83;1.73;;;19.30;99.90;;;;;;4965695;28;20026;-87
2023/08/26 10:55:25;;;;;;;1.90;1.30;;;20.40;99.90;;;;;;4932865;28;20032;-89
2023/08/26 10:58:13;;;;;;;4.10;1.77;;;19.30;99.90;;;;;;4974924;28;20085;-88
2023/08/26 11:00:52;;;;;;;3.22;1.70;;;19.30;99.90;;;;;;4970063;28;20512;-87
2023/08/26 11:03:36;;;;;;;3.20;1.52;;;19.40;99.90;;;;;;4975194;28;20074;-87
2023/08/26 11:06:22;;;;;;;2.08;1.10;;;19.70;99.90;;;;;;4981191;28;20038;-88
2023/08/26 11:09:00;;;;;;;3.78;1.83;;;19.50;99.90;;;;;;4977978;28;20257;-87
2023/08/26 11:11:32;;;;;;;4.63;1.60;;;19.60;99.90;;;;;;4979014;28;20053;-88
2023/08/26 11:13:58;;;;;;;3.10;1.70;;;19.80;99.90;;;;;;4975879;28;20026;-85
2023/08/26 11:16:24;;;;;;;2.35;1.50;;;19.30;99.90;;;;;;4966308;28;20034;-85
2023/08/26 11:18:53;;;;;;;2.55;1.60;;;19.50;99.90;;;;;;4965583;28;20482;-85
2023/08/26 11:21:20;;;;;;;3.63;1.67;;;19.40;99.90;;;;;;4967574;28;20499;-85
2023/08/26 11:23:50;;;;;;;3.05;1.98;;;19.30;99.90;;;;;;4967683;28;20065;-87
2023/08/26 11:26:22;;;;;;;6.65;1.60;;;19.40;99.90;;;;;;4966567;28;20023;-86
2023/08/26 11:28:50;;;;;;;5.13;1.70;;;20.10;99.90;;;;;;4971564;28;20035;-90
2023/08/26 11:31:16;;;;;;;3.70;1.90;;;19.30;99.90;;;;;;4966918;28;20023;-92
2023/08/26 11:33:42;;;;;;;4.00;1.77;;;19.20;99.90;;;;;;4964910;28;20399;-89
2023/08/26 11:36:07;;;;;;;1.75;1.33;;;19.40;99.90;;;;;;4971924;28;20018;-88
2023/08/26 11:38:36;;;;;;;4.38;1.73;;;19.20;99.90;;;;;;4965815;28;20031;-87
2023/08/26 11:41:06;;;;;;;3.35;1.75;;;19.10;99.90;;;;;;4969808;28;20449;-88
2023/08/26 11:43:34;;;;;;;4.68;1.95;;;19.20;99.90;;;;;;4965956;28;20475;-85
2023/08/26 11:46:00;;;;;;;3.65;1.88;;;19.20;99.90;;;;;;4968576;28;20034;-82
2023/08/26 11:48:26;;;;;;;3.83;1.55;;;19.40;99.90;;;;;;4966775;28;20027;-81
2023/08/26 11:50:57;;;;;;;1.30;1.20;;;20.10;99.90;;;;;;4965923;28;20109;-83
2023/08/26 11:53:24;;;;;;;5.55;1.88;;;19.20;99.90;;;;;;4967139;28;20026;-82
2023/08/26 11:55:50;;;;;;;2.60;2.35;;;19.20;99.90;;;;;;4969296;28;20065;-82
2023/08/26 11:58:15;;;;;;;3.28;1.65;;;19.20;99.90;;;;;;4964935;28;20038;-82
2023/08/26 12:00:42;;;;;;;1.55;1.42;;;19.30;99.90;;;;;;4966213;28;20042;-81
2023/08/26 12:03:08;;;;;;;3.20;1.83;;;19.30;99.90;;;;;;4970425;28;20027;-82
2023/08/26 12:05:45;;;;;;;4.00;1.77;;;19.40;99.90;;;;;;4966730;28;20077;-83
2023/08/26 12:08:19;;;;;;;3.72;1.17;;;19.40;99.90;;;;;;4970817;28;20026;-82
2023/08/26 12:10:53;;;;;;;1.38;1.27;;;19.30;99.90;;;;;;4967016;28;20070;-82
2023/08/26 12:13:19;;;;;;;2.50;1.17;;;19.50;99.90;;;;;;4966940;28;20076;-82
2023/08/26 12:15:45;;;;;;;2.38;1.30;;;19.40;99.90;;;;;;4967547;28;20457;-82
2023/08/26 12:18:11;;;;;;;4.00;1.30;;;19.60;99.90;;;;;;4970254;28;20492;-82
2023/08/26 12:20:37;;;;;;;3.20;1.42;;;19.70;99.90;;;;;;4968178;28;20023;-82
2023/08/26 12:23:05;;;;;;;5.80;1.20;;;19.50;99.90;;;;;;4966845;28;20058;-83
2023/08/26 12:25:37;;;;;;;2.25;1.30;;;19.60;99.90;;;;;;4961358;28;20471;-83
2023/08/26 12:28:09;;;;;;;2.10;1.52;;;19.70;99.90;;;;;;4967998;28;20027;-84
2023/08/26 12:30:36;;;;;;;2.88;1.38;;;19.80;99.90;;;;;;4967663;28;20024;-83
2023/08/26 12:33:03;;;;;;;2.75;1.15;;;20.40;99.90;;;;;;4972287;28;20078;-83
2023/08/26 12:35:29;;;;;;;1.52;1.00;;;20.00;99.90;;;;;;4967656;28;20031;-83
2023/08/26 12:37:54;;;;;;;2.65;1.55;;;20.10;99.90;;;;;;4970242;28;20039;-81
2023/08/26 12:40:21;;;;;;;1.55;0.98;;;20.10;99.90;;;;;;4969508;28;20443;-82
2023/08/26 12:42:47;;;;;;;3.08;1.48;;;20.20;99.90;;;;;;4979300;28;20447;-82
2023/08/26 12:45:12;;;;;;;1.10;0.88;;;20.30;99.90;;;;;;4967936;28;20035;-82
2023/08/26 12:47:38;;;;;;;3.33;0.98;;;20.30;99.90;;;;;;4968048;28;20035;-82
2023/08/26 12:50:04;;;;;;;1.38;1.00;;;20.30;99.90;;;;;;4963512;28;20035;-82